Airport View

Enter AWOS ICAO identifier for current METAR.

ex. KFNL

KEOK 300520Z AUTO 30006KT 10SM CLR 02/M00 A3017 RMK AO2

30 Oct 2020 05:24

Frequency: 118.375

Phone: 319-524-7884

Other Area AWOS: KFSW - KBRL - KMPZ - KUIN

TAF KBRL 292320Z 3000/3024 32009KT P6SM OVC040 FM301300 25005KT P6SM OVC100